createdAt,value
2022-10-25T00:04:05.135Z,14.40
2022-10-25T00:09:07.545Z,14.39
2022-10-25T00:14:10.103Z,14.35
2022-10-25T00:19:12.166Z,14.33
2022-10-25T00:24:15.506Z,14.32
2022-10-25T00:29:17.899Z,14.29
2022-10-25T00:34:20.002Z,14.27
2022-10-25T00:39:22.155Z,14.27
2022-10-25T00:44:36.835Z,14.28
2022-10-25T00:49:38.863Z,14.24
2022-10-25T00:54:45.043Z,14.20
2022-10-25T00:59:47.598Z,14.17
2022-10-25T01:04:50.190Z,14.18
2022-10-25T01:09:52.221Z,14.14
2022-10-25T01:14:54.819Z,14.13
2022-10-25T01:20:27.040Z,14.12
2022-10-25T01:26:19.985Z,14.10
2022-10-25T01:31:30.229Z,14.04
2022-10-25T01:36:50.388Z,14.02
2022-10-25T01:42:03.683Z,13.99
2022-10-25T01:47:21.002Z,13.92
2022-10-25T01:52:24.607Z,13.93
2022-10-25T01:57:41.645Z,13.88
2022-10-25T02:02:53.455Z,13.82
2022-10-25T02:08:05.264Z,13.80
2022-10-25T02:13:22.317Z,13.79
2022-10-25T02:18:27.800Z,13.77
2022-10-25T02:23:30.335Z,13.71
2022-10-25T02:28:33.260Z,13.73
2022-10-25T02:33:35.385Z,13.69
2022-10-25T02:38:37.802Z,13.68
2022-10-25T02:43:40.025Z,13.69
2022-10-25T02:48:42.539Z,13.64
2022-10-25T02:53:44.740Z,13.65
2022-10-25T02:58:48.350Z,13.65
2022-10-25T03:03:50.781Z,13.66
2022-10-25T03:08:52.828Z,13.64
2022-10-25T03:13:54.854Z,13.67
2022-10-25T03:18:58.443Z,13.66
2022-10-25T03:24:00.441Z,13.69
2022-10-25T03:29:02.499Z,13.71
2022-10-25T03:34:04.376Z,13.69
2022-10-25T03:39:06.313Z,13.66
2022-10-25T03:44:08.278Z,13.65
2022-10-25T03:49:10.280Z,13.66
2022-10-25T03:54:12.180Z,13.66
2022-10-25T03:59:14.075Z,13.66
2022-10-25T04:04:15.998Z,13.61
2022-10-25T04:09:17.927Z,13.57
2022-10-25T04:14:20.126Z,13.60
2022-10-25T04:19:22.102Z,13.57
2022-10-25T04:24:24.033Z,13.52
2022-10-25T04:29:26.009Z,13.51
2022-10-25T04:34:28.118Z,13.51
2022-10-25T04:39:30.086Z,13.51
2022-10-25T04:44:32.094Z,13.50
2022-10-25T04:49:33.990Z,13.49
2022-10-25T04:54:35.898Z,13.48
2022-10-25T04:59:37.839Z,13.45
2022-10-25T05:04:39.783Z,13.42
2022-10-25T05:09:45.159Z,13.44
2022-10-25T05:14:49.527Z,13.43
2022-10-25T05:19:51.603Z,13.42
2022-10-25T05:24:53.660Z,13.42
2022-10-25T05:29:55.571Z,13.42
2022-10-25T05:34:57.558Z,13.40
2022-10-25T05:39:59.452Z,13.43
2022-10-25T05:45:01.569Z,13.46
2022-10-25T05:50:03.730Z,13.44
2022-10-25T05:55:06.082Z,13.41
2022-10-25T06:00:08.322Z,13.43
2022-10-25T06:05:10.298Z,13.43
2022-10-25T06:10:12.582Z,13.39
2022-10-25T06:15:14.691Z,13.41
2022-10-25T06:20:16.721Z,13.39
2022-10-25T06:25:18.824Z,13.33
2022-10-25T06:30:21.912Z,13.39
2022-10-25T06:35:23.956Z,13.31
2022-10-25T06:40:26.145Z,13.26
2022-10-25T06:45:28.177Z,13.23
2022-10-25T06:50:30.334Z,13.27
2022-10-25T06:55:32.229Z,13.36
2022-10-25T07:00:34.495Z,13.41
2022-10-25T07:05:37.438Z,13.48
2022-10-25T07:10:40.191Z,13.57
2022-10-25T07:15:42.299Z,13.58
2022-10-25T07:20:48.860Z,13.62
2022-10-25T07:25:50.824Z,13.67
2022-10-25T07:30:54.374Z,13.70
2022-10-25T07:36:09.883Z,13.73
2022-10-25T07:41:13.883Z,13.74
2022-10-25T07:46:15.983Z,13.79
2022-10-25T07:51:18.365Z,13.87
2022-10-25T07:56:23.360Z,13.91
2022-10-25T08:01:27.531Z,14.00
2022-10-25T08:06:29.490Z,14.11
2022-10-25T08:11:31.421Z,14.26
2022-10-25T08:16:33.398Z,14.37
2022-10-25T08:21:35.533Z,14.54
2022-10-25T08:26:37.533Z,14.69
2022-10-25T08:31:39.395Z,14.84
2022-10-25T08:36:41.586Z,14.96
2022-10-25T08:41:50.556Z,15.21
2022-10-25T08:46:56.475Z,15.30
2022-10-25T08:51:59.951Z,15.26
2022-10-25T08:57:26.554Z,15.28
2022-10-25T09:02:37.549Z,15.56
2022-10-25T09:07:54.091Z,16.53
2022-10-25T09:18:47.771Z,16.75
2022-10-25T09:24:01.547Z,17.01
2022-10-25T09:29:06.833Z,18.02
2022-10-25T09:34:10.833Z,18.96
2022-10-25T09:39:23.187Z,19.25
2022-10-25T09:44:34.374Z,18.78
2022-10-25T09:50:04.069Z,18.52
2022-10-25T09:55:24.776Z,18.57
2022-10-25T10:00:26.833Z,19.29
2022-10-25T10:05:29.249Z,20.22
2022-10-25T10:10:33.899Z,20.88
2022-10-25T10:15:41.910Z,21.27
2022-10-25T10:20:56.631Z,21.40
2022-10-25T10:26:03.034Z,21.17
2022-10-25T10:31:06.526Z,20.90
2022-10-25T10:36:29.301Z,20.92
2022-10-25T10:41:31.608Z,20.90
2022-10-25T10:46:33.954Z,20.62
2022-10-25T10:51:43.956Z,20.43
2022-10-25T10:56:56.790Z,20.26
2022-10-25T11:02:12.317Z,20.17
2022-10-25T11:07:29.321Z,20.11
2022-10-25T11:12:31.577Z,20.06
2022-10-25T11:17:37.711Z,20.05
2022-10-25T11:22:48.537Z,20.09
2022-10-25T11:28:38.640Z,20.17
2022-10-25T11:34:03.850Z,20.16
2022-10-25T11:40:00.431Z,20.08
2022-10-25T11:45:11.972Z,20.03
2022-10-25T11:50:27.014Z,20.09
2022-10-25T11:55:56.306Z,20.11
2022-10-25T12:01:00.353Z,20.21
2022-10-25T12:06:30.762Z,20.41
2022-10-25T12:11:42.142Z,20.54
2022-10-25T12:16:44.543Z,20.71
2022-10-25T12:21:56.781Z,20.82
2022-10-25T12:27:01.566Z,20.76
2022-10-25T12:32:09.538Z,20.65
2022-10-25T12:37:19.872Z,20.61
2022-10-25T12:42:23.072Z,20.68
2022-10-25T12:47:31.270Z,20.76
2022-10-25T12:52:37.156Z,20.90
2022-10-25T12:57:56.886Z,21.04
2022-10-25T13:03:32.750Z,21.07
2022-10-25T13:08:34.584Z,21.12
2022-10-25T13:13:56.727Z,21.35
2022-10-25T13:19:42.790Z,21.53
2022-10-25T13:24:47.304Z,21.71
2022-10-25T13:30:07.564Z,21.86
2022-10-25T13:35:22.278Z,22.02
2022-10-25T13:40:26.704Z,21.82
2022-10-25T13:45:39.567Z,21.75
2022-10-25T13:50:52.254Z,21.90
2022-10-25T13:55:59.254Z,21.89
2022-10-25T14:01:16.320Z,21.72
2022-10-25T14:06:30.536Z,21.80
2022-10-25T14:11:32.422Z,21.67
2022-10-25T14:16:52.992Z,21.64
2022-10-25T14:21:55.649Z,21.69
2022-10-25T14:27:00.182Z,21.61
2022-10-25T14:32:12.522Z,21.44
2022-10-25T14:37:15.161Z,21.34
2022-10-25T14:42:18.192Z,21.22
2022-10-25T14:47:31.414Z,21.04
2022-10-25T14:52:33.357Z,21.01
2022-10-25T14:57:36.471Z,20.93
2022-10-25T15:02:41.950Z,20.83
2022-10-25T15:07:47.101Z,20.80
2022-10-25T15:12:52.398Z,20.81
2022-10-25T15:17:54.345Z,20.81
2022-10-25T15:23:05.352Z,20.83
2022-10-25T15:28:25.570Z,20.71
2022-10-25T15:33:32.294Z,20.82
2022-10-25T15:39:06.274Z,20.77
2022-10-25T15:43:57.752Z,20.65
2022-10-25T15:49:01.517Z,20.63
2022-10-25T15:54:03.487Z,20.75
2022-10-25T15:59:05.442Z,20.64
2022-10-25T16:04:08.589Z,20.56
2022-10-25T16:09:10.980Z,20.41
2022-10-25T16:14:20.199Z,20.37
2022-10-25T16:19:22.378Z,20.35
2022-10-25T16:24:24.514Z,20.19
2022-10-25T16:29:26.586Z,20.09
2022-10-25T16:34:28.577Z,20.06
2022-10-25T16:39:30.734Z,19.94
2022-10-25T16:44:32.638Z,19.88
2022-10-25T16:49:34.747Z,19.83
2022-10-25T16:54:36.789Z,19.75
2022-10-25T16:59:38.923Z,19.51
2022-10-25T17:04:41.090Z,19.40
2022-10-25T17:09:43.136Z,19.32
2022-10-25T17:14:45.226Z,19.18
2022-10-25T17:19:47.336Z,19.02
2022-10-25T17:24:49.318Z,18.85
2022-10-25T17:29:51.201Z,18.67
2022-10-25T17:34:53.963Z,18.55
2022-10-25T17:39:55.838Z,18.47
2022-10-25T17:44:57.849Z,18.37
2022-10-25T17:50:01.870Z,18.23
2022-10-25T17:55:04.161Z,18.05
2022-10-25T18:00:06.949Z,17.88
2022-10-25T18:05:20.318Z,17.80
2022-10-25T18:10:23.113Z,17.69
2022-10-25T18:15:25.055Z,17.70
2022-10-25T18:20:27.158Z,17.55
2022-10-25T18:25:29.078Z,17.46
2022-10-25T18:30:31.087Z,17.38
2022-10-25T18:35:33.070Z,17.27
2022-10-25T18:40:35.657Z,17.25
2022-10-25T18:45:37.772Z,17.27
2022-10-25T18:50:42.520Z,17.22
2022-10-25T18:55:48.645Z,17.15
2022-10-25T19:00:50.633Z,17.14
2022-10-25T19:05:52.807Z,17.06
2022-10-25T19:10:54.815Z,17.03
2022-10-25T19:15:58.186Z,16.93
2022-10-25T19:21:05.138Z,16.87
2022-10-25T19:26:09.641Z,16.82
2022-10-25T19:31:16.709Z,16.76
2022-10-25T19:36:20.133Z,16.70
2022-10-25T19:41:23.253Z,16.59
2022-10-25T19:46:25.314Z,16.53
2022-10-25T19:51:27.472Z,16.50
2022-10-25T19:56:29.459Z,16.45
2022-10-25T20:01:32.087Z,16.41
2022-10-25T20:06:35.291Z,16.36
2022-10-25T20:11:37.201Z,16.27
2022-10-25T20:16:40.383Z,16.19
2022-10-25T20:21:42.482Z,16.12
2022-10-25T20:26:49.754Z,16.10
2022-10-25T20:31:52.566Z,16.08
2022-10-25T20:36:54.545Z,16.08
2022-10-25T20:41:56.686Z,16.04
2022-10-25T20:46:58.607Z,16.07
2022-10-25T20:52:01.129Z,16.06
2022-10-25T20:57:03.339Z,16.05
2022-10-25T21:02:05.368Z,16.06
2022-10-25T21:07:07.603Z,16.05
2022-10-25T21:12:09.499Z,16.02
2022-10-25T21:17:11.725Z,15.99
2022-10-25T21:22:13.591Z,15.99
2022-10-25T21:27:15.579Z,16.01
2022-10-25T21:32:17.512Z,16.02
2022-10-25T21:37:19.514Z,15.99
2022-10-25T21:42:21.444Z,15.96
2022-10-25T21:47:23.367Z,15.93
2022-10-25T21:52:25.344Z,15.87
2022-10-25T21:57:27.359Z,15.87
2022-10-25T22:02:29.550Z,15.86
2022-10-25T22:07:32.088Z,15.87
2022-10-25T22:12:34.352Z,15.84
2022-10-25T22:17:36.539Z,15.85
2022-10-25T22:22:38.409Z,15.81
2022-10-25T22:27:40.428Z,15.75
2022-10-25T22:32:42.487Z,15.71
2022-10-25T22:37:44.406Z,15.75
2022-10-25T22:42:46.242Z,15.79
2022-10-25T22:47:51.672Z,15.81
2022-10-25T22:52:53.671Z,15.77
2022-10-25T22:57:56.178Z,15.70
2022-10-25T23:02:58.123Z,15.66
2022-10-25T23:08:00.102Z,15.61
2022-10-25T23:13:02.120Z,15.49
2022-10-25T23:18:04.003Z,15.37
2022-10-25T23:23:06.108Z,15.38
2022-10-25T23:28:08.143Z,15.41
2022-10-25T23:33:11.768Z,15.38
2022-10-25T23:38:14.039Z,15.41
2022-10-25T23:43:15.944Z,15.39
2022-10-25T23:48:17.939Z,15.35
2022-10-25T23:53:19.952Z,15.31
2022-10-25T23:58:22.237Z,15.25
